Russell, Iowa
Current Conditions -  °F | °C
As of 10:15 AM on Thursday 29 Jan 2015 (Local Time) from KCNC Reporting Station
Overcast Overcast  
Wind Chill: 21°   Ceiling: 1600
Heat Index: 34°   Visibility: 10mi
Dew Point: 28°   Wind: 25mph
Humidity: 81%   Direction: 330°NNW
Pressure: 30.21"   Gusts: 35mph
Location:  40.98°N, 93.2°W
Report Text: KCNC 291615Z AUTO 33022G30KT 10SM OVC016 01/M02 A3021 RMK AO2
Loading
Personal Weather Stations






























Interactive Weather Map New forecast layout! Learn more

10-Day Weather Forecast

Advertisements
Track Severe Weather on mobile